Time;durP1;ratioP1;P1;durP2;ratioP2;P2;SDS_P1;SDS_P2;PMS_P1;PMS_P2;Temp;Humidity;BMP_temperature;BMP_pressure;BME280_temperature;BME280_humidity;BME280_pressure;Samples;Min_cycle;Max_cycle;Signal;HPM_P1;HPM_P2
2022/07/11 09:48:17;;;;;;;0.00;0.00;;;21.20;99.90;20.90;97845.00;;;;5109429;27;20568;-74
2022/07/11 09:51:00;;;;;;;0.00;0.00;;;21.20;99.90;21.00;97835.00;;;;5089445;28;20189;-75
2022/07/11 09:53:28;;;;;;;0.00;0.00;;;21.40;99.90;21.10;97833.00;;;;5086485;28;20215;-74
2022/07/11 09:55:56;;;;;;;0.00;0.00;;;21.50;99.90;21.20;97836.00;;;;5085988;28;20196;-74
2022/07/11 09:58:31;;;;;;;0.00;0.00;;;21.60;99.90;21.10;97830.00;;;;5092305;28;20550;-74
2022/07/11 10:01:00;;;;;;;0.00;0.00;;;21.60;99.90;20.80;97836.00;;;;5092384;28;20219;-75
2022/07/11 10:03:30;;;;;;;0.00;0.00;;;21.50;99.90;20.60;97834.00;;;;5093532;28;20185;-74
2022/07/11 10:06:18;;;;;;;0.00;0.00;;;21.40;99.90;20.40;97833.00;;;;5092436;28;20213;-74
2022/07/11 10:08:46;;;;;;;0.00;0.00;;;21.10;99.90;20.40;97837.00;;;;5092715;28;20227;-74
2022/07/11 10:11:14;;;;;;;0.00;0.00;;;21.10;99.90;20.50;97844.00;;;;5090222;28;20232;-74
2022/07/11 10:13:43;;;;;;;0.00;0.00;;;21.10;99.90;20.50;97838.00;;;;5090834;28;20223;-74
2022/07/11 10:16:24;;;;;;;0.00;0.00;;;21.10;99.90;20.50;97844.00;;;;5092726;28;20199;-74
2022/07/11 10:19:12;;;;;;;0.00;0.00;;;21.10;99.90;20.40;97838.00;;;;5090642;28;20221;-75
2022/07/11 10:21:49;;;;;;;0.00;0.00;;;21.10;99.90;20.40;97832.00;;;;5091573;28;20201;-73
2022/07/11 10:24:37;;;;;;;0.00;0.00;;;21.10;99.90;20.50;97841.00;;;;5093239;28;20189;-73
2022/07/11 10:27:17;;;;;;;0.00;0.00;;;21.10;99.90;20.10;97843.00;;;;5093856;28;20572;-73
2022/07/11 10:29:51;;;;;;;0.00;0.00;;;21.00;99.90;19.80;97843.00;;;;5088551;28;20299;-73
2022/07/11 10:32:20;;;;;;;0.00;0.00;;;20.70;99.90;20.20;97841.00;;;;5089733;28;20216;-73
2022/07/11 10:35:07;;;;;;;0.00;0.00;;;20.80;99.90;20.60;97843.00;;;;5089793;28;20218;-73
2022/07/11 10:37:49;;;;;;;0.00;0.00;;;21.00;99.90;20.90;97845.00;;;;5089682;28;20212;-73
2022/07/11 10:40:49;;;;;;;0.00;0.00;;;21.30;99.90;21.00;97839.00;;;;5077523;28;20228;-73
2022/07/11 10:43:36;;;;;;;0.00;0.00;;;21.40;99.90;20.70;97833.00;;;;5084126;28;20201;-74
2022/07/11 10:46:07;;;;;;;0.00;0.00;;;21.30;99.90;20.70;97840.00;;;;5086360;28;20189;-74
2022/07/11 10:48:51;;;;;;;0.00;0.00;;;21.30;99.90;20.30;97840.00;;;;5085784;28;20618;-73
2022/07/11 10:51:27;;;;;;;0.00;0.00;;;21.00;99.90;20.20;97830.00;;;;5086473;28;20197;-74
2022/07/11 10:54:11;;;;;;;0.00;0.00;;;20.90;99.90;20.20;97841.00;;;;5080693;28;20193;-74
2022/07/11 10:57:00;;;;;;;0.00;0.00;;;20.90;99.90;20.50;97845.00;;;;5068381;28;20205;-73
2022/07/11 10:59:28;;;;;;;0.00;0.00;;;21.10;99.90;20.90;97841.00;;;;5056304;28;20285;-73
2022/07/11 11:02:12;;;;;;;0.00;0.00;;;21.30;99.90;20.90;97838.00;;;;5055091;28;20558;-73
2022/07/11 11:04:47;;;;;;;0.00;0.00;;;21.40;99.90;20.80;97804.00;;;;5057968;28;20272;-74
2022/07/11 11:07:38;;;;;;;0.00;0.00;;;21.30;99.90;21.30;97824.00;;;;5054449;28;20224;-74
2022/07/11 11:10:51;;;;;;;0.00;0.00;;;21.70;99.90;21.80;97830.00;;;;5054144;28;20309;-74
2022/07/11 11:13:20;;;;;;;0.00;0.00;;;22.20;98.90;22.10;97817.00;;;;5053460;28;20210;-74
2022/07/11 11:15:51;;;;;;;0.00;0.00;;;22.40;98.40;21.60;97808.00;;;;5064615;28;20187;-74
2022/07/11 11:18:45;;;;;;;0.00;0.00;;;22.10;97.50;21.90;97823.00;;;;5074139;28;20221;-71
2022/07/11 11:22:34;;;;;;;0.00;0.00;;;22.40;96.90;21.80;97824.00;;;;5130734;27;20491;-72
2022/07/11 11:25:02;;;;;;;0.00;0.00;;;22.30;97.10;22.10;97788.00;;;;5108749;28;20537;-73
2022/07/11 11:28:04;;;;;;;0.00;0.00;;;22.50;97.30;22.30;97829.00;;;;5101620;28;20295;-73
2022/07/11 11:30:33;;;;;;;0.00;0.00;;;22.70;96.60;22.60;97834.00;;;;5085389;28;20193;-74
2022/07/11 11:33:02;;;;;;;0.00;0.00;;;23.00;96.70;22.80;97833.00;;;;5080875;28;20197;-73
2022/07/11 11:35:30;;;;;;;0.00;0.00;;;23.10;96.10;22.50;97831.00;;;;5089336;28;20197;-74
2022/07/11 11:38:01;;;;;;;0.00;0.00;;;23.00;95.50;22.70;97829.00;;;;5070594;28;20273;-73
2022/07/11 11:40:29;;;;;;;0.00;0.00;;;23.10;95.80;22.30;97840.00;;;;5088362;28;20201;-73
2022/07/11 11:42:57;;;;;;;0.00;0.00;;;22.80;96.20;21.70;97820.00;;;;5086469;28;20193;-74
2022/07/11 11:45:26;;;;;;;0.00;0.00;;;22.30;96.40;21.10;97825.00;;;;5090327;28;20200;-73
2022/07/11 11:47:54;;;;;;;0.00;0.00;;;21.80;96.90;21.70;97842.00;;;;5088531;28;20204;-73
2022/07/11 11:50:22;;;;;;;0.00;0.00;;;22.20;97.20;22.00;97832.00;;;;5088096;28;20205;-73
2022/07/11 11:52:50;;;;;;;0.00;0.00;;;22.50;96.70;22.60;97837.00;;;;5088389;28;20200;-73
2022/07/11 11:55:20;;;;;;;0.00;0.00;;;22.90;95.80;22.80;97829.00;;;;5088290;28;20276;-74
2022/07/11 11:57:48;;;;;;;0.00;0.00;;;23.10;95.60;22.90;97833.00;;;;5088522;28;20198;-73
2022/07/11 12:00:26;;;;;;;0.00;0.00;;;23.30;95.10;22.30;97846.00;;;;5088831;28;20300;-73
2022/07/11 12:03:14;;;;;;;0.00;0.00;;;22.90;94.60;22.10;97825.00;;;;5088921;28;20270;-73
2022/07/11 12:05:55;;;;;;;0.00;0.00;;;22.80;95.20;22.20;97836.00;;;;5088269;28;20660;-73
2022/07/11 12:08:28;;;;;;;0.00;0.00;;;22.70;95.20;22.30;97834.00;;;;5087434;28;20220;-73
2022/07/11 12:10:57;;;;;;;0.00;0.00;;;22.80;95.10;22.30;97837.00;;;;5088369;28;20209;-73
2022/07/11 12:13:26;;;;;;;0.00;0.00;;;22.80;95.10;22.50;97842.00;;;;5083169;28;20616;-73
2022/07/11 12:18:40;;;;;;;0.00;0.00;;;23.00;94.50;22.90;97830.00;;;;5082226;28;20622;-73
2022/07/11 12:21:13;;;;;;;0.00;0.00;;;23.20;94.30;23.00;97838.00;;;;5086641;28;20216;-73
2022/07/11 12:23:42;;;;;;;0.00;0.00;;;23.30;94.00;23.00;97838.00;;;;5087921;28;20196;-73
2022/07/11 12:26:12;;;;;;;0.00;0.00;;;23.40;93.60;23.10;97835.00;;;;5088114;28;20259;-73
2022/07/11 12:29:10;;;;;;;0.00;0.00;;;23.50;93.80;23.40;97844.00;;;;5087706;28;20587;-73
2022/07/11 12:31:48;;;;;;;0.00;0.00;;;23.80;92.70;23.40;97839.00;;;;5087828;28;20255;-72
2022/07/11 12:34:18;;;;;;;0.00;0.00;;;23.70;93.00;22.70;97825.00;;;;5071329;28;20201;-72
2022/07/11 12:36:47;;;;;;;0.00;0.00;;;23.20;93.10;23.30;97841.00;;;;5071988;28;20517;-73
2022/07/11 12:39:26;;;;;;;0.00;0.00;;;23.70;93.20;23.70;97845.00;;;;5073888;28;20222;-72
2022/07/11 12:41:57;;;;;;;0.00;0.00;;;24.00;93.10;23.60;97838.00;;;;5073941;28;20561;-73
2022/07/11 12:47:15;;;;;;;0.00;0.00;;;23.70;92.90;22.80;97835.00;;;;5069099;28;20201;-73
2022/07/11 12:49:45;;;;;;;0.00;0.00;;;23.50;92.90;23.40;97835.00;;;;5064398;28;20221;-73
2022/07/11 12:52:14;;;;;;;0.00;0.00;;;23.80;92.70;23.80;97834.00;;;;5073572;28;20220;-73
2022/07/11 12:54:43;;;;;;;0.00;0.00;;;24.00;92.00;23.90;97823.00;;;;5068498;28;20209;-73
2022/07/11 12:57:17;;;;;;;0.00;0.00;;;24.20;91.60;23.90;97788.00;;;;5071497;28;20205;-73
2022/07/11 12:59:46;;;;;;;0.00;0.00;;;24.30;91.70;23.80;97826.00;;;;5074013;28;20224;-73
2022/07/11 13:02:15;;;;;;;0.00;0.00;;;24.30;91.00;23.50;97833.00;;;;5073796;28;20221;-73
2022/07/11 13:04:48;;;;;;;0.00;0.00;;;23.90;91.30;22.80;97815.00;;;;5073718;28;20594;-73
2022/07/11 13:10:18;;;;;;;0.00;0.00;;;23.30;91.80;22.40;97776.00;;;;5071377;28;20619;-74
2022/07/11 13:12:53;;;;;;;0.00;0.00;;;23.20;91.70;22.80;97820.00;;;;5072190;28;20226;-74
2022/07/11 13:15:23;;;;;;;0.00;0.00;;;23.40;91.90;22.80;97816.00;;;;5072632;28;20201;-74
2022/07/11 13:17:53;;;;;;;0.00;0.00;;;23.40;91.20;23.30;97823.00;;;;5073065;28;20288;-73
2022/07/11 13:20:28;;;;;;;0.00;0.00;;;23.80;90.90;23.60;97819.00;;;;5072964;28;20186;-73
2022/07/11 13:22:56;;;;;;;0.00;0.00;;;24.00;90.20;23.70;97823.00;;;;5075491;28;20217;-74
2022/07/11 13:25:25;;;;;;;0.00;0.00;;;24.20;89.90;23.90;97818.00;;;;5073001;28;20194;-74
2022/07/11 13:27:55;;;;;;;0.00;0.00;;;24.30;89.90;23.90;97808.00;;;;5073483;28;20200;-73
2022/07/11 13:30:29;;;;;;;0.00;0.00;;;24.30;90.30;23.70;97824.00;;;;5072488;28;20193;-73
2022/07/11 13:33:18;;;;;;;0.00;0.00;;;24.20;90.10;23.10;97821.00;;;;5071031;28;20202;-73
2022/07/11 13:35:46;;;;;;;0.00;0.00;;;23.80;90.20;23.30;97812.00;;;;5072501;28;20205;-73
2022/07/11 13:38:15;;;;;;;0.00;0.00;;;23.90;90.20;23.30;97811.00;;;;5071896;28;20202;-72
2022/07/11 13:40:44;;;;;;;0.00;0.00;;;23.90;89.60;23.50;97820.00;;;;5071929;28;20558;-72
2022/07/11 13:43:14;;;;;;;0.00;0.00;;;24.10;90.00;23.50;97822.00;;;;5072077;28;20223;-72
2022/07/11 13:45:44;;;;;;;0.00;0.00;;;24.10;88.90;23.00;97820.00;;;;5071424;28;20192;-72
2022/07/11 13:48:12;;;;;;;0.00;0.00;;;23.70;88.50;23.20;97820.00;;;;5072182;28;20499;-73
2022/07/11 13:50:42;;;;;;;0.00;0.00;;;23.80;89.50;23.40;97826.00;;;;5070559;28;20194;-73
2022/07/11 13:53:09;;;;;;;0.00;0.00;;;23.80;88.80;23.50;97822.00;;;;5071733;28;20661;-72
2022/07/11 13:55:38;;;;;;;0.00;0.00;;;24.00;89.80;23.70;97825.00;;;;5068798;28;20665;-73
2022/07/11 13:58:23;;;;;;;0.00;0.00;;;24.20;88.90;23.50;97831.00;;;;5064959;28;20187;-72
2022/07/11 14:00:59;;;;;;;0.00;0.00;;;24.10;88.20;23.60;97786.00;;;;5075916;28;20198;-72
2022/07/11 14:03:28;;;;;;;0.00;0.00;;;24.20;88.60;23.80;97829.00;;;;5071132;28;20221;-72
2022/07/11 14:05:56;;;;;;;0.00;0.00;;;24.30;88.50;23.80;97829.00;;;;5064089;28;20198;-72
2022/07/11 14:08:24;;;;;;;0.00;0.00;;;24.30;88.20;23.70;97821.00;;;;5077784;28;20217;-73
2022/07/11 14:10:52;;;;;;;0.00;0.00;;;24.30;88.20;23.70;97817.00;;;;5064344;28;20767;-73
2022/07/11 14:13:21;;;;;;;0.00;0.00;;;24.30;88.20;23.60;97813.00;;;;5072715;28;20217;-72
2022/07/11 14:15:49;;;;;;;0.00;0.00;;;24.30;87.40;23.70;97805.00;;;;5088858;28;20209;-72
2022/07/11 14:18:19;;;;;;;0.00;0.00;;;24.30;88.70;23.60;97807.00;;;;5071884;28;20214;-72
2022/07/11 14:20:47;;;;;;;0.00;0.00;;;24.10;89.40;23.60;97813.00;;;;5073633;28;20673;-72
2022/07/11 14:23:15;;;;;;;0.00;0.00;;;24.20;89.20;23.90;97811.00;;;;5072758;28;20228;-72
2022/07/11 14:25:45;;;;;;;0.00;0.00;;;24.30;89.90;24.10;97822.00;;;;5074556;28;20188;-72
2022/07/11 14:28:13;;;;;;;0.00;0.00;;;24.50;89.50;24.10;97817.00;;;;5074540;28;20228;-72
2022/07/11 14:30:47;;;;;;;0.00;0.00;;;24.50;87.10;23.70;97811.00;;;;5073436;28;20258;-73
2022/07/11 14:33:15;;;;;;;0.00;0.00;;;24.30;86.90;23.90;97814.00;;;;5071851;28;20204;-73
2022/07/11 14:35:45;;;;;;;0.00;0.00;;;24.40;87.90;23.90;97815.00;;;;5070976;28;20201;-73
2022/07/11 14:38:13;;;;;;;0.00;0.00;;;24.50;88.40;24.00;97815.00;;;;5071762;28;20198;-73
2022/07/11 14:40:41;;;;;;;0.00;0.00;;;24.50;88.40;24.00;97820.00;;;;5070931;28;20193;-73
2022/07/11 14:43:09;;;;;;;0.00;0.00;;;24.50;88.20;24.00;97825.00;;;;5071501;28;20232;-73
2022/07/11 14:45:37;;;;;;;0.00;0.00;;;24.50;87.40;24.00;97821.00;;;;5071976;28;20201;-73
2022/07/11 14:48:06;;;;;;;0.00;0.00;;;24.50;87.70;23.80;97830.00;;;;5071533;28;20194;-73
2022/07/11 14:50:34;;;;;;;0.00;0.00;;;24.30;87.90;23.70;97822.00;;;;5071837;28;20190;-73
2022/07/11 14:53:04;;;;;;;0.00;0.00;;;24.20;87.60;23.60;97822.00;;;;5072983;28;20200;-75
2022/07/11 14:55:32;;;;;;;0.00;0.00;;;24.10;87.10;23.50;97829.00;;;;5072807;28;20680;-75
2022/07/11 14:58:00;;;;;;;0.00;0.00;;;24.00;87.40;23.50;97821.00;;;;5072416;28;20198;-76
2022/07/11 15:00:28;;;;;;;0.00;0.00;;;24.00;87.90;23.10;97815.00;;;;5071995;28;20255;-75
2022/07/11 15:05:42;;;;;;;0.00;0.00;;;23.50;88.40;23.20;97817.00;;;;5072394;28;20228;-75
2022/07/11 15:13:43;;;;;;;0.00;0.00;;;24.00;90.10;23.40;97825.00;;;;5065810;28;20582;-75
2022/07/11 15:16:11;;;;;;;0.00;0.00;;;23.90;90.10;23.30;97820.00;;;;5072029;28;20551;-75
2022/07/11 15:18:39;;;;;;;0.00;0.00;;;23.80;90.40;23.10;97818.00;;;;5072891;28;20232;-75
2022/07/11 15:21:07;;;;;;;0.00;0.00;;;23.70;90.60;23.20;97821.00;;;;5067374;28;20206;-75
2022/07/11 15:23:37;;;;;;;0.00;0.00;;;23.70;90.80;23.40;97827.00;;;;5052564;28;20213;-75
2022/07/11 15:26:05;;;;;;;0.00;0.00;;;23.90;90.70;23.50;97825.00;;;;5057271;28;20198;-75
2022/07/11 15:28:33;;;;;;;0.00;0.00;;;23.90;90.20;23.50;97821.00;;;;5056344;28;20229;-75
2022/07/11 15:31:02;;;;;;;0.00;0.00;;;23.90;90.20;23.60;97816.00;;;;5067191;28;20217;-76
2022/07/11 15:33:30;;;;;;;0.00;0.00;;;24.00;89.90;23.50;97816.00;;;;5066241;28;20220;-76
2022/07/11 15:35:58;;;;;;;0.00;0.00;;;24.00;89.90;23.60;97819.00;;;;5072209;28;20677;-75
2022/07/11 15:38:26;;;;;;;0.00;0.00;;;24.00;88.50;23.70;97815.00;;;;5058745;28;20714;-75
2022/07/11 15:40:56;;;;;;;0.00;0.00;;;24.10;87.90;23.60;97820.00;;;;5069794;28;20202;-75
2022/07/11 15:43:24;;;;;;;0.00;0.00;;;24.10;88.40;23.70;97822.00;;;;5072691;28;20252;-75
2022/07/11 15:45:52;;;;;;;0.00;0.00;;;24.20;88.80;23.60;97819.00;;;;5070948;28;20209;-75
2022/07/11 15:48:20;;;;;;;0.00;0.00;;;24.10;88.40;23.60;97820.00;;;;5078354;28;20217;-75
2022/07/11 15:50:49;;;;;;;0.00;0.00;;;24.10;88.90;23.80;97825.00;;;;5074300;28;20571;-75
2022/07/11 15:53:17;;;;;;;0.00;0.00;;;24.30;89.00;23.90;97818.00;;;;5066843;28;20274;-75
2022/07/11 15:55:46;;;;;;;0.00;0.00;;;24.40;88.70;24.00;97813.00;;;;5056508;28;20190;-75
2022/07/11 15:58:16;;;;;;;0.00;0.00;;;24.40;88.10;23.90;97814.00;;;;5058900;28;20195;-76
2022/07/11 16:00:44;;;;;;;0.00;0.00;;;24.30;88.40;23.80;97815.00;;;;5053986;28;20201;-76
2022/07/11 16:03:13;;;;;;;0.00;0.00;;;24.30;89.10;23.80;97810.00;;;;5069204;28;20221;-76
2022/07/11 16:05:41;;;;;;;0.00;0.00;;;24.20;89.50;23.80;97805.00;;;;5071257;28;20202;-76
2022/07/11 16:08:09;;;;;;;0.00;0.00;;;24.20;89.50;23.70;97776.00;;;;5072570;28;20190;-75
2022/07/11 16:10:37;;;;;;;0.00;0.00;;;24.10;90.00;23.60;97781.00;;;;5075798;28;20194;-75
2022/07/11 16:13:17;;;;;;;0.00;0.00;;;24.10;90.60;23.70;97801.00;;;;5075394;28;20617;-75
2022/07/11 16:15:47;;;;;;;0.00;0.00;;;24.10;90.70;23.70;97777.00;;;;5075915;28;20196;-76
2022/07/11 16:18:16;;;;;;;0.00;0.00;;;24.10;90.50;23.70;97815.00;;;;5073575;28;20236;-75
2022/07/11 16:20:44;;;;;;;0.00;0.00;;;24.10;88.40;23.70;97806.00;;;;5074744;28;20232;-75
2022/07/11 16:23:13;;;;;;;0.00;0.00;;;24.10;87.60;23.50;97813.00;;;;5074580;28;20688;-75
2022/07/11 16:25:41;;;;;;;0.00;0.00;;;24.00;88.90;23.50;97811.00;;;;5074627;28;20186;-75
2022/07/11 16:28:09;;;;;;;0.00;0.00;;;24.00;88.90;23.50;97805.00;;;;5074134;28;20213;-74
2022/07/11 16:30:42;;;;;;;0.00;0.00;;;24.00;89.70;23.30;97802.00;;;;5074681;28;20201;-74
2022/07/11 16:33:10;;;;;;;0.00;0.00;;;23.80;90.30;23.20;97807.00;;;;5073558;28;20206;-75
2022/07/11 16:35:39;;;;;;;0.00;0.00;;;23.80;90.70;23.00;97816.00;;;;5074550;28;20665;-77
2022/07/11 16:38:08;;;;;;;0.00;0.00;;;23.60;91.10;23.20;97821.00;;;;5074588;28;20219;-75
2022/07/11 16:43:21;;;;;;;0.00;0.00;;;23.70;91.50;23.30;97813.00;;;;5074419;28;20234;-74
2022/07/11 16:45:54;;;;;;;0.00;0.00;;;23.80;91.50;23.30;97822.00;;;;5073534;28;20292;-75
2022/07/11 16:48:24;;;;;;;0.00;0.00;;;23.80;91.60;23.30;97829.00;;;;5072931;28;20634;-75
2022/07/11 16:50:54;;;;;;;0.00;0.00;;;23.70;91.90;23.20;97821.00;;;;5075475;28;20198;-75
2022/07/11 16:53:24;;;;;;;0.00;0.00;;;23.70;92.40;23.00;97827.00;;;;5076378;28;20255;-76
2022/07/11 16:55:52;;;;;;;0.00;0.00;;;23.60;92.80;22.90;97830.00;;;;5076464;28;20569;-75
2022/07/11 16:58:20;;;;;;;0.00;0.00;;;23.50;93.30;22.70;97830.00;;;;5074889;28;20221;-75
2022/07/11 17:00:48;;;;;;;0.00;0.00;;;23.30;93.50;22.80;97825.00;;;;5076002;28;20228;-75
2022/07/11 17:03:18;;;;;;;0.00;0.00;;;23.30;93.70;22.90;97834.00;;;;5078241;28;20661;-75
2022/07/11 17:05:46;;;;;;;0.00;0.00;;;23.40;93.60;23.00;97837.00;;;;5079495;28;20194;-75
2022/07/11 17:11:03;;;;;;;0.00;0.00;;;23.40;93.30;22.90;97834.00;;;;5075391;28;20501;-75
2022/07/11 17:13:33;;;;;;;0.00;0.00;;;23.40;93.30;22.90;97826.00;;;;5076404;28;20194;-75
2022/07/11 17:16:02;;;;;;;0.00;0.00;;;23.40;93.60;22.80;97818.00;;;;5075847;28;20200;-75
2022/07/11 17:18:32;;;;;;;0.00;0.00;;;23.20;94.60;22.50;97830.00;;;;5078979;28;20213;-75
2022/07/11 17:21:00;;;;;;;0.00;0.00;;;23.00;95.00;22.70;97832.00;;;;5079836;28;20206;-75
2022/07/11 17:23:29;;;;;;;0.00;0.00;;;23.00;95.30;22.60;97833.00;;;;5077973;28;20705;-75
2022/07/11 17:25:57;;;;;;;0.00;0.00;;;23.10;95.20;22.60;97833.00;;;;5075106;28;20466;-78
2022/07/11 17:28:27;;;;;;;0.00;0.00;;;23.10;95.10;21.90;97831.00;;;;5074881;28;20206;-76
2022/07/11 17:30:56;;;;;;;0.00;0.00;;;22.60;95.10;21.80;97839.00;;;;5072960;28;20550;-75
2022/07/11 17:33:24;;;;;;;0.00;0.00;;;22.40;95.30;22.00;97833.00;;;;5075014;28;20600;-75
2022/07/11 17:35:54;;;;;;;0.00;0.00;;;22.50;94.80;22.10;97794.00;;;;5069255;28;20687;-75
2022/07/11 17:38:22;;;;;;;0.00;0.00;;;22.60;94.80;22.00;97838.00;;;;5057484;28;20222;-76
2022/07/11 17:40:51;;;;;;;0.00;0.00;;;22.40;95.20;21.90;97836.00;;;;5068114;28;20201;-76
2022/07/11 17:43:21;;;;;;;0.00;0.00;;;22.40;95.50;21.70;97838.00;;;;5073973;28;20221;-75
2022/07/11 17:45:49;;;;;;;0.00;0.00;;;22.30;95.80;21.80;97837.00;;;;5074150;28;20335;-75
2022/07/11 17:48:17;;;;;;;0.00;0.00;;;22.40;96.00;21.70;97844.00;;;;5073804;28;20221;-76
2022/07/11 17:50:47;;;;;;;0.00;0.00;;;22.30;96.70;21.80;97844.00;;;;5074773;28;20201;-76
2022/07/11 17:53:37;;;;;;;0.00;0.00;;;22.40;96.50;21.70;97846.00;;;;5074914;28;20190;-76
2022/07/11 17:56:07;;;;;;;0.00;0.00;;;22.30;96.00;21.80;97831.00;;;;5073586;28;20194;-75
2022/07/11 17:58:35;;;;;;;0.00;0.00;;;22.30;96.20;22.00;97840.00;;;;5074621;28;20213;-75
2022/07/11 18:01:04;;;;;;;0.00;0.00;;;22.40;96.40;22.10;97843.00;;;;5063913;28;20276;-75
2022/07/11 18:03:33;;;;;;;0.00;0.00;;;22.50;96.20;21.90;97840.00;;;;5074679;28;20197;-75
2022/07/11 18:06:01;;;;;;;0.00;0.00;;;22.50;96.10;21.90;97841.00;;;;5072412;28;20669;-76
2022/07/11 18:08:29;;;;;;;0.00;0.00;;;22.40;96.80;22.10;97841.00;;;;5073192;28;20217;-76
2022/07/11 18:11:00;;;;;;;0.00;0.00;;;22.50;96.60;22.00;97843.00;;;;5074136;28;20190;-76
2022/07/11 18:13:29;;;;;;;0.00;0.00;;;22.50;96.60;21.90;97844.00;;;;5070085;28;20243;-75
2022/07/11 18:15:57;;;;;;;0.00;0.00;;;22.40;96.80;21.80;97845.00;;;;5071681;28;20590;-76
2022/07/11 18:18:26;;;;;;;0.00;0.00;;;22.40;96.80;21.60;97847.00;;;;5071812;28;20300;-76
2022/07/11 18:20:54;;;;;;;0.00;0.00;;;22.20;97.00;21.50;97853.00;;;;5072259;28;20213;-76
2022/07/11 18:23:23;;;;;;;0.00;0.00;;;22.10;97.20;21.40;97835.00;;;;5053571;28;20190;-76
2022/07/11 18:25:51;;;;;;;0.00;0.00;;;22.00;97.40;21.40;97862.00;;;;5072088;28;20701;-75
2022/07/11 18:28:22;;;;;;;0.00;0.00;;;22.00;97.80;21.30;97848.00;;;;5072537;28;20579;-77
2022/07/11 18:30:50;;;;;;;0.00;0.00;;;21.90;97.80;21.30;97845.00;;;;5073366;28;20191;-77
2022/07/11 18:33:19;;;;;;;0.00;0.00;;;21.90;97.80;21.30;97803.00;;;;5065989;28;20202;-77
2022/07/11 18:35:48;;;;;;;0.00;0.00;;;21.80;97.90;21.20;97846.00;;;;5059632;28;20198;-75
2022/07/11 18:38:16;;;;;;;0.00;0.00;;;21.80;97.80;21.10;97856.00;;;;5057626;28;20190;-76
2022/07/11 18:43:58;;;;;;;0.00;0.00;;;21.70;98.20;20.90;97847.00;;;;5070861;28;20197;-76
2022/07/11 18:46:19;;;;;;;0.00;0.00;;;21.60;98.30;20.90;97855.00;;;;5071958;28;20225;-76
2022/07/11 18:48:47;;;;;;;0.00;0.00;;;21.50;98.50;20.90;97846.00;;;;5069966;28;20217;-75
2022/07/11 18:51:16;;;;;;;0.00;0.00;;;21.50;98.60;20.70;97854.00;;;;5071650;28;20193;-76
2022/07/11 18:53:44;;;;;;;0.00;0.00;;;21.40;98.70;20.70;97872.00;;;;5071633;28;20268;-75
2022/07/11 18:56:12;;;;;;;0.00;0.00;;;21.40;98.70;20.70;97861.00;;;;5071404;28;20204;-74
2022/07/11 18:58:41;;;;;;;0.00;0.00;;;21.30;98.90;20.70;97804.00;;;;5070043;28;20696;-75
2022/07/11 19:01:09;;;;;;;0.00;0.00;;;21.30;98.90;20.70;97881.00;;;;5068586;28;20189;-76
2022/07/11 19:03:37;;;;;;;0.00;0.00;;;21.30;99.10;20.70;97862.00;;;;5071231;28;20719;-75
2022/07/11 19:06:06;;;;;;;0.00;0.00;;;21.20;98.90;20.60;97870.00;;;;5070956;28;20214;-75
2022/07/11 19:08:39;;;;;;;0.00;0.00;;;21.20;99.10;20.50;97864.00;;;;5070766;28;20217;-75
2022/07/11 19:11:07;;;;;;;0.00;0.00;;;21.20;99.10;20.50;97863.00;;;;5071496;28;20194;-75
2022/07/11 19:13:36;;;;;;;0.00;0.00;;;21.10;99.20;20.40;97858.00;;;;5051879;28;20195;-76
2022/07/11 19:16:07;;;;;;;0.00;0.00;;;21.10;99.20;20.50;97864.00;;;;5069164;28;20202;-76
2022/07/11 19:18:35;;;;;;;0.00;0.00;;;21.10;99.30;20.40;97873.00;;;;5070672;28;20588;-76
2022/07/11 19:21:04;;;;;;;0.00;0.00;;;21.00;99.20;20.40;97874.00;;;;5070466;28;20189;-75
2022/07/11 19:23:32;;;;;;;0.00;0.00;;;21.00;99.30;20.40;97879.00;;;;5069683;28;20194;-76
2022/07/11 19:26:00;;;;;;;0.00;0.00;;;21.00;99.30;20.30;97874.00;;;;5064343;28;20709;-76
2022/07/11 19:28:28;;;;;;;0.00;0.00;;;20.90;99.30;20.20;97878.00;;;;5070207;28;20217;-76
2022/07/11 19:30:56;;;;;;;0.00;0.00;;;20.90;99.40;20.20;97876.00;;;;5071749;28;20562;-77
2022/07/11 19:33:26;;;;;;;0.00;0.00;;;20.80;99.50;20.20;97882.00;;;;5070028;28;20190;-76
2022/07/11 19:35:54;;;;;;;0.00;0.00;;;20.80;99.50;20.00;97887.00;;;;5070869;28;20220;-76
2022/07/11 19:38:22;;;;;;;0.00;0.00;;;20.60;99.50;20.00;97845.00;;;;5066324;28;20292;-77
2022/07/11 19:40:50;;;;;;;0.00;0.00;;;20.60;99.90;19.90;97897.00;;;;5068543;28;20194;-77
2022/07/11 19:43:20;;;;;;;0.00;0.00;;;20.50;99.90;19.60;97890.00;;;;5074250;28;20194;-76
2022/07/11 19:45:49;;;;;;;0.00;0.00;;;20.30;99.90;19.40;97895.00;;;;5076359;28;20226;-75
2022/07/11 19:48:17;;;;;;;0.00;0.00;;;20.20;99.90;19.30;97892.00;;;;5078776;28;20217;-74
2022/07/11 19:50:54;;;;;;;0.00;0.00;;;20.10;99.90;19.10;97891.00;;;;5080312;28;20197;-74
2022/07/11 19:53:22;;;;;;;0.00;0.00;;;19.90;99.90;19.10;97907.00;;;;5085040;28;20198;-75
2022/07/11 19:58:36;;;;;;;0.00;0.00;;;19.80;99.90;19.00;97919.00;;;;5075724;28;20217;-75
2022/07/11 20:01:05;;;;;;;0.00;0.00;;;19.80;99.90;19.10;97917.00;;;;5079265;28;20194;-76
2022/07/11 20:03:34;;;;;;;0.00;0.00;;;19.90;99.90;19.00;97922.00;;;;5076535;28;20221;-74
2022/07/11 20:06:03;;;;;;;0.00;0.00;;;19.80;99.90;19.20;97923.00;;;;5070463;28;20222;-74
2022/07/11 20:08:31;;;;;;;0.00;0.00;;;19.90;99.90;19.10;97927.00;;;;5067180;28;20217;-76
2022/07/11 20:10:59;;;;;;;0.00;0.00;;;19.90;99.90;19.20;97810.00;;;;5074960;28;20193;-75
2022/07/11 20:13:27;;;;;;;0.00;0.00;;;19.80;99.90;19.10;97928.00;;;;5057035;28;20194;-76
2022/07/11 20:15:55;;;;;;;0.00;0.00;;;19.80;99.90;18.90;97934.00;;;;5070187;28;20212;-76
2022/07/11 20:18:24;;;;;;;0.00;0.00;;;19.70;99.90;18.80;97942.00;;;;5076182;28;20209;-76
2022/07/11 20:20:52;;;;;;;0.00;0.00;;;19.60;99.90;18.70;97940.00;;;;5075319;28;20201;-75
2022/07/11 20:23:21;;;;;;;0.00;0.00;;;19.50;99.90;18.60;97938.00;;;;5063527;28;20198;-75
2022/07/11 20:25:50;;;;;;;0.00;0.00;;;19.50;99.90;18.50;97946.00;;;;5073579;28;20598;-75
2022/07/11 20:28:18;;;;;;;0.00;0.00;;;19.40;99.90;18.60;97939.00;;;;5073841;28;20209;-74
2022/07/11 20:30:46;;;;;;;0.00;0.00;;;19.40;99.90;18.60;97946.00;;;;5074648;28;20571;-73
2022/07/11 20:33:14;;;;;;;0.00;0.00;;;19.40;99.90;18.50;97941.00;;;;5074743;28;20213;-75
2022/07/11 20:35:43;;;;;;;0.00;0.00;;;19.30;99.90;18.50;97942.00;;;;5073643;28;20205;-75
2022/07/11 20:38:11;;;;;;;0.00;0.00;;;19.30;99.90;18.50;97942.00;;;;5075219;28;20220;-75
2022/07/11 20:40:40;;;;;;;0.00;0.00;;;19.30;99.90;18.40;97945.00;;;;5073561;28;20186;-75
2022/07/11 20:43:08;;;;;;;0.00;0.00;;;19.20;99.90;18.40;97944.00;;;;5074134;28;20549;-75
2022/07/11 20:45:36;;;;;;;0.00;0.00;;;19.20;99.90;18.40;97936.00;;;;5081469;28;20205;-75
2022/07/11 20:48:05;;;;;;;0.00;0.00;;;19.10;99.90;18.30;97944.00;;;;5081166;28;20197;-75
2022/07/11 20:50:33;;;;;;;0.00;0.00;;;19.00;99.90;18.50;97940.00;;;;5085195;28;20696;-76
2022/07/11 20:53:02;;;;;;;0.00;0.00;;;19.20;99.90;18.50;97953.00;;;;5085222;28;20198;-72
2022/07/11 20:55:30;;;;;;;0.00;0.00;;;19.20;99.90;18.60;97960.00;;;;5085282;28;20618;-72
2022/07/11 20:57:59;;;;;;;0.00;0.00;;;19.30;99.90;18.50;97962.00;;;;5085252;28;20265;-72
2022/07/11 21:00:27;;;;;;;0.00;0.00;;;19.20;99.90;18.30;97955.00;;;;5086326;28;20198;-72
2022/07/11 21:02:55;;;;;;;0.00;0.00;;;18.90;99.90;18.00;97969.00;;;;5086144;28;20222;-72
2022/07/11 21:05:23;;;;;;;0.00;0.00;;;18.70;99.90;17.90;97968.00;;;;5083726;28;20205;-71
2022/07/11 21:07:51;;;;;;;0.00;0.00;;;18.60;99.90;17.70;97971.00;;;;5083667;28;20589;-72
2022/07/11 21:10:20;;;;;;;0.00;0.00;;;18.50;99.90;17.60;97971.00;;;;5079119;28;20644;-72
2022/07/11 21:12:48;;;;;;;0.00;0.00;;;18.50;99.90;17.60;97975.00;;;;5074055;28;20190;-72
2022/07/11 21:15:17;;;;;;;0.00;0.00;;;18.40;99.90;17.40;97973.00;;;;5071866;28;20198;-72
2022/07/11 21:17:45;;;;;;;0.00;0.00;;;18.30;99.90;17.30;97971.00;;;;5073723;28;20634;-72
2022/07/11 21:20:13;;;;;;;0.00;0.00;;;18.20;99.90;17.40;97969.00;;;;5073895;28;20211;-71
2022/07/11 21:22:41;;;;;;;0.00;0.00;;;18.20;99.90;17.30;97971.00;;;;5075605;28;20197;-71
2022/07/11 21:25:10;;;;;;;0.10;0.10;;;18.20;99.90;17.40;97975.00;;;;5074207;28;20201;-71
2022/07/11 21:27:38;;;;;;;0.00;0.00;;;18.20;99.90;17.40;97972.00;;;;5072519;28;20217;-72